Terminal Aerodrome Forecast
Issued by NWS Cleveland, OH

Home | Current Version | Previous Version | Text Only | Print | Product List | Glossary Off
Versions: 1 2 3 4 5 6 7 8 9 10 11 12 13 14 15 16 17 18 19

017
FTUS41 KCLE 041131
TAFERI
TAF
KERI 041131Z 0412/0512 24010G20KT P6SM -SHSN OVC025
     FM041400 26007KT P6SM -SHSN OVC025
     FM050200 29005KT P6SM VCSH OVC035=

USA.gov is the U.S. government's official web portal to all federal, state and local government web resources and services.